Time;durP1;ratioP1;P1;durP2;ratioP2;P2;SDS_P1;SDS_P2;PMS_P1;PMS_P2;Temp;Humidity;BMP_temperature;BMP_pressure;BME280_temperature;BME280_humidity;BME280_pressure;Samples;Min_cycle;Max_cycle;Signal;HPM_P1;HPM_P2
2024/01/19 00:02:17;;;;;;;4.70;2.40;;;;;;;5.19;76.14;96908.09;105106;1267;74333;-26
2024/01/19 00:04:44;;;;;;;5.90;3.60;;;;;;;5.49;76.74;96922.51;105053;1263;72643;-26
2024/01/19 00:07:12;;;;;;;5.80;4.00;;;;;;;6.01;75.53;96931.88;104965;1264;61164;-27
2024/01/19 00:09:38;;;;;;;5.60;4.10;;;;;;;6.04;75.22;96930.96;104789;1269;61118;-26
2024/01/19 00:12:05;;;;;;;5.50;3.90;;;;;;;5.81;75.49;96930.80;105006;1264;72919;-27
2024/01/19 00:14:33;;;;;;;5.70;3.80;;;;;;;5.56;76.08;96931.30;105120;1267;74339;-27
2024/01/19 00:17:00;;;;;;;5.30;3.90;;;;;;;5.33;76.93;96929.70;105194;1263;72631;-27
2024/01/19 00:19:27;;;;;;;5.90;3.90;;;;;;;5.16;77.38;96931.95;105072;1263;61014;-27
2024/01/19 00:21:54;;;;;;;4.70;3.10;;;;;;;5.02;78.33;96931.36;105154;1265;61140;-27
2024/01/19 00:24:21;;;;;;;5.70;3.60;;;;;;;5.43;77.98;96939.90;105225;1264;73012;-29
2024/01/19 00:26:48;;;;;;;4.60;3.40;;;;;;;5.99;75.80;96951.01;104866;1267;73123;-26
2024/01/19 00:29:15;;;;;;;5.90;4.30;;;;;;;6.01;74.92;96956.17;105140;1264;72682;-27
2024/01/19 00:31:45;;;;;;;5.50;3.70;;;;;;;5.76;75.37;96959.91;104936;1264;61193;-26
2024/01/19 00:34:13;;;;;;;5.60;3.60;;;;;;;5.47;76.18;96959.86;105090;1262;61887;-26
2024/01/19 00:36:40;;;;;;;6.60;4.10;;;;;;;5.20;77.29;96963.73;104822;1263;70789;-27
2024/01/19 00:39:07;;;;;;;7.20;4.20;;;;;;;4.97;78.14;96962.92;104846;1264;74307;-27
2024/01/19 00:41:34;;;;;;;5.60;3.00;;;;;;;4.76;79.03;96967.58;104876;1264;72570;-27
2024/01/19 00:44:01;;;;;;;5.10;3.50;;;;;;;5.25;78.83;96965.47;105160;1264;61058;-26
2024/01/19 00:46:28;;;;;;;4.30;3.00;;;;;;;5.84;76.61;96961.75;105153;1274;61141;-26
2024/01/19 00:48:55;;;;;;;8.30;3.80;;;;;;;5.83;75.51;96964.91;105569;1257;72770;-26
2024/01/19 00:51:22;;;;;;;5.70;3.80;;;;;;;5.52;75.79;96964.95;105480;1258;73246;-27
2024/01/19 00:53:49;;;;;;;7.10;4.10;;;;;;;5.27;76.10;96962.56;105580;1257;72781;-27
2024/01/19 00:56:17;;;;;;;13.90;6.70;;;;;;;5.12;76.55;96964.13;105595;1256;61064;-27
2024/01/19 00:58:45;;;;;;;9.80;5.30;;;;;;;4.94;77.88;96967.46;105580;1256;61109;-27
2024/01/19 01:01:13;;;;;;;7.40;4.10;;;;;;;4.77;78.37;96972.60;105519;1257;72810;-28
2024/01/19 01:03:40;;;;;;;9.90;5.50;;;;;;;5.25;78.46;96972.52;105430;1263;74505;-26
2024/01/19 01:06:07;;;;;;;12.60;7.50;;;;;;;5.85;76.14;96977.69;105569;1260;72601;-27
2024/01/19 01:08:36;;;;;;;13.90;7.10;;;;;;;6.01;75.37;96977.74;105501;1257;61016;-26
2024/01/19 01:11:05;;;;;;;11.30;5.40;;;;;;;5.88;75.34;96975.98;105522;1260;61159;-26
2024/01/19 01:13:32;;;;;;;9.90;5.40;;;;;;;5.72;75.56;96975.80;105606;1257;73011;-27
2024/01/19 01:16:00;;;;;;;10.50;4.70;;;;;;;5.57;75.67;96973.97;105626;1257;74430;-27
2024/01/19 01:18:26;;;;;;;7.10;4.40;;;;;;;5.38;75.83;96979.11;105552;1257;72520;-27
2024/01/19 01:20:53;;;;;;;4.70;3.10;;;;;;;5.10;76.42;96985.96;105654;1257;61195;-27
2024/01/19 01:23:21;;;;;;;9.00;4.30;;;;;;;5.40;76.56;96992.51;105603;1260;61183;-27
2024/01/19 01:25:48;;;;;;;5.80;3.80;;;;;;;5.87;74.91;96991.30;105559;1257;73115;-26
2024/01/19 01:28:15;;;;;;;7.10;4.20;;;;;;;5.88;74.44;96991.67;105632;1257;74142;-27
2024/01/19 01:30:42;;;;;;;4.90;3.40;;;;;;;5.64;74.73;96995.61;105597;1256;73075;-26
2024/01/19 01:33:09;;;;;;;7.30;3.30;;;;;;;5.28;75.32;97001.17;105651;1257;61036;-26
2024/01/19 01:35:36;;;;;;;5.90;3.90;;;;;;;4.77;77.32;97010.23;105640;1257;61155;-27
2024/01/19 01:38:04;;;;;;;6.10;3.90;;;;;;;4.29;79.32;97015.84;105668;1258;73128;-26
2024/01/19 01:40:31;;;;;;;6.20;3.60;;;;;;;3.86;81.58;97019.38;105650;1260;74326;-26
2024/01/19 01:43:00;;;;;;;6.60;3.90;;;;;;;4.21;81.37;97028.77;105623;1257;72370;-26
2024/01/19 01:45:27;;;;;;;7.50;3.70;;;;;;;4.43;80.85;97032.82;105237;1260;61250;-26
2024/01/19 01:47:55;;;;;;;5.20;3.60;;;;;;;4.39;80.70;97036.10;105665;1259;61112;-26
2024/01/19 01:50:22;;;;;;;3.20;2.30;;;;;;;3.89;83.25;97036.36;105408;1257;72845;-26
2024/01/19 01:52:51;;;;;;;8.40;5.40;;;;;;;3.68;84.38;97039.59;105633;1258;74842;-26
2024/01/19 01:55:18;;;;;;;7.50;4.50;;;;;;;3.39;86.35;97039.63;105588;1258;71639;-27
2024/01/19 01:57:45;;;;;;;3.80;2.80;;;;;;;3.59;86.18;97041.75;105592;1257;61010;-27
2024/01/19 02:00:13;;;;;;;8.90;5.60;;;;;;;3.78;84.80;97048.42;105326;1257;61160;-27
2024/01/19 02:02:40;;;;;;;8.30;5.10;;;;;;;3.58;85.54;97057.31;105330;1262;73243;-27
2024/01/19 02:05:08;;;;;;;7.40;5.30;;;;;;;3.32;86.69;97070.59;105409;1257;74261;-27
2024/01/19 02:07:35;;;;;;;7.80;4.80;;;;;;;3.21;87.42;97070.97;105655;1257;72529;-27
2024/01/19 02:10:03;;;;;;;6.70;4.10;;;;;;;3.44;87.19;97069.82;105330;1258;61004;-27
2024/01/19 02:12:30;;;;;;;4.60;3.10;;;;;;;3.57;85.52;97076.89;105391;1260;61093;-26
2024/01/19 02:14:57;;;;;;;4.20;3.20;;;;;;;3.46;85.94;97085.74;105564;1257;73161;-26
2024/01/19 02:17:26;;;;;;;6.50;4.30;;;;;;;3.32;86.46;97088.92;105664;1256;74353;-27
2024/01/19 02:19:53;;;;;;;5.20;3.70;;;;;;;3.21;86.74;97092.05;105496;1258;72616;-27
2024/01/19 02:22:20;;;;;;;4.10;3.20;;;;;;;3.04;87.92;97105.33;105469;1260;61066;-27
2024/01/19 02:24:47;;;;;;;4.70;3.40;;;;;;;3.38;86.47;97113.89;105608;1259;61191;-26
2024/01/19 02:27:14;;;;;;;4.00;3.10;;;;;;;3.52;84.96;97117.67;105514;1262;73709;-28
2024/01/19 02:29:49;;;;;;;5.40;3.90;;;;;;;3.37;85.25;97122.20;105278;1257;74095;-26
2024/01/19 02:32:16;;;;;;;6.50;4.20;;;;;;;2.89;87.03;97133.08;105363;1256;71350;-26
2024/01/19 02:34:46;;;;;;;5.50;3.70;;;;;;;2.63;87.86;97138.56;105579;1260;61144;-26
2024/01/19 02:37:16;;;;;;;6.10;4.30;;;;;;;2.84;86.67;97154.25;105634;1257;61845;-26
2024/01/19 02:39:42;;;;;;;4.30;2.80;;;;;;;2.57;86.93;97168.84;105569;1260;72923;-26
2024/01/19 02:42:09;;;;;;;6.00;3.70;;;;;;;2.49;87.01;97176.31;105596;1260;74375;-26
2024/01/19 02:44:36;;;;;;;6.00;4.30;;;;;;;2.18;88.41;97192.77;105539;1256;73224;-26
2024/01/19 02:47:04;;;;;;;6.70;4.60;;;;;;;2.19;89.92;97205.33;105447;1257;61072;-26
2024/01/19 02:49:31;;;;;;;8.20;5.20;;;;;;;2.44;87.93;97202.05;105609;1260;61182;-26
2024/01/19 02:51:58;;;;;;;6.10;4.10;;;;;;;2.34;87.77;97199.88;105545;1257;72469;-26
2024/01/19 02:54:24;;;;;;;7.40;4.00;;;;;;;2.42;87.18;97201.17;105612;1257;74285;-26
2024/01/19 02:56:51;;;;;;;8.10;5.70;;;;;;;2.21;87.46;97207.24;105652;1257;73004;-26
2024/01/19 02:59:19;;;;;;;5.00;3.20;;;;;;;1.89;88.91;97211.18;105549;1257;61073;-26
2024/01/19 03:01:45;;;;;;;4.90;3.30;;;;;;;2.04;88.17;97211.23;105406;1260;61182;-26
2024/01/19 03:04:12;;;;;;;6.30;3.30;;;;;;;1.93;88.18;97217.52;105413;1257;70677;-26
2024/01/19 03:06:39;;;;;;;5.50;3.70;;;;;;;1.99;88.03;97225.50;105583;1257;74167;-26
2024/01/19 03:09:06;;;;;;;5.60;3.80;;;;;;;1.65;89.47;97232.59;105508;1257;72547;-26
2024/01/19 03:11:33;;;;;;;5.90;3.90;;;;;;;1.69;89.80;97242.14;105502;1257;61027;-26
2024/01/19 03:14:00;;;;;;;5.90;4.30;;;;;;;1.90;88.45;97254.52;105334;1260;61186;-26
2024/01/19 03:16:27;;;;;;;4.90;3.00;;;;;;;1.97;88.18;97259.70;105592;1257;72915;-26
2024/01/19 03:18:55;;;;;;;7.50;4.60;;;;;;;1.82;88.76;97267.16;105649;1257;74226;-26
2024/01/19 03:21:22;;;;;;;6.90;4.40;;;;;;;1.90;88.89;97278.84;105632;1257;72650;-25
2024/01/19 03:23:48;;;;;;;8.30;5.00;;;;;;;1.86;88.74;97290.77;105636;1257;61191;-25
2024/01/19 03:26:15;;;;;;;5.20;3.80;;;;;;;2.01;88.02;97301.69;105409;1260;61191;-25
2024/01/19 03:28:42;;;;;;;5.60;3.80;;;;;;;2.02;87.13;97313.29;105606;1257;73159;-24
2024/01/19 03:31:09;;;;;;;6.20;3.90;;;;;;;1.78;88.11;97321.79;105653;1258;74244;-25
2024/01/19 03:33:36;;;;;;;6.50;3.90;;;;;;;1.65;88.47;97329.27;105626;1260;73287;-25
2024/01/19 03:36:03;;;;;;;6.70;4.70;;;;;;;1.54;88.67;97332.63;105612;1257;61249;-25
2024/01/19 03:38:31;;;;;;;5.20;3.50;;;;;;;1.70;87.86;97340.04;105609;1258;61099;-25
2024/01/19 03:40:58;;;;;;;7.90;5.10;;;;;;;1.93;86.79;97351.02;105664;1257;73813;-25
2024/01/19 03:43:25;;;;;;;4.40;3.30;;;;;;;1.68;87.29;97340.73;105599;1257;74851;-25
2024/01/19 03:45:51;;;;;;;7.10;4.30;;;;;;;1.57;87.51;97343.20;105510;1257;72791;-25
2024/01/19 03:48:18;;;;;;;6.50;4.20;;;;;;;1.59;88.08;97346.10;105592;1257;61240;-25
2024/01/19 03:50:45;;;;;;;6.70;4.50;;;;;;;1.91;86.54;97356.16;105310;1258;61102;-25
2024/01/19 03:53:12;;;;;;;6.90;4.70;;;;;;;1.85;86.07;97362.40;105689;1254;73934;-25
2024/01/19 03:55:39;;;;;;;6.70;4.20;;;;;;;1.68;86.98;97371.11;105943;1254;74396;-25
2024/01/19 03:58:06;;;;;;;4.50;3.40;;;;;;;1.48;87.73;97378.40;105862;1254;72464;-25
2024/01/19 04:00:33;;;;;;;5.40;3.50;;;;;;;1.24;89.12;97383.65;105565;1254;61089;-25
2024/01/19 04:03:00;;;;;;;6.20;3.70;;;;;;;1.52;87.84;97386.65;105813;1257;61115;-25
2024/01/19 04:05:27;;;;;;;3.70;2.80;;;;;;;1.53;87.23;97384.35;105897;1254;74205;-25
2024/01/19 04:07:54;;;;;;;5.90;3.80;;;;;;;1.42;87.56;97386.49;105905;1256;74295;-25
2024/01/19 04:10:21;;;;;;;6.10;4.00;;;;;;;1.34;88.01;97394.73;105860;1254;72681;-25
2024/01/19 04:12:52;;;;;;;6.60;3.50;;;;;;;1.22;88.39;97400.35;105846;1253;61147;-25
2024/01/19 04:15:19;;;;;;;5.20;3.40;;;;;;;1.72;87.03;97404.88;105589;1254;61134;-25
2024/01/19 04:17:46;;;;;;;4.60;3.00;;;;;;;1.50;86.52;97411.58;105581;1253;74417;-26
2024/01/19 04:20:13;;;;;;;6.50;4.00;;;;;;;1.67;86.43;97423.59;105601;1254;74728;-25
2024/01/19 04:22:40;;;;;;;7.80;4.90;;;;;;;1.31;87.37;97432.06;105636;1254;72073;-25
2024/01/19 04:25:08;;;;;;;5.50;4.00;;;;;;;1.14;88.36;97440.76;105818;1254;61154;-25
2024/01/19 04:27:35;;;;;;;6.40;3.80;;;;;;;1.38;87.90;97444.04;105900;1257;61157;-25
2024/01/19 04:30:02;;;;;;;5.70;3.90;;;;;;;1.64;86.21;97447.38;105899;1256;73634;-25
2024/01/19 04:32:29;;;;;;;6.60;4.50;;;;;;;1.30;86.72;97452.80;105794;1254;74458;-25
2024/01/19 04:34:56;;;;;;;6.10;3.80;;;;;;;1.09;87.90;97460.90;105851;1254;72544;-25
2024/01/19 04:37:23;;;;;;;8.10;3.90;;;;;;;0.95;88.10;97462.89;105846;1252;61099;-26
2024/01/19 04:39:50;;;;;;;7.10;4.20;;;;;;;1.07;87.07;97466.17;105887;1254;61163;-26
2024/01/19 04:42:17;;;;;;;6.40;4.80;;;;;;;0.95;87.03;97463.56;105713;1254;74237;-26
2024/01/19 04:44:44;;;;;;;4.80;3.30;;;;;;;0.68;87.84;97472.36;105815;1256;74325;-25
2024/01/19 04:47:11;;;;;;;7.00;4.90;;;;;;;0.65;88.26;97480.75;105633;1256;72615;-25
2024/01/19 04:49:38;;;;;;;7.10;4.30;;;;;;;0.56;88.93;97490.34;105775;1254;61062;-25
2024/01/19 04:52:05;;;;;;;7.80;4.40;;;;;;;0.87;87.71;97495.86;105830;1253;61171;-25
2024/01/19 04:54:32;;;;;;;8.10;4.40;;;;;;;1.17;86.21;97499.31;105730;1254;74283;-25
2024/01/19 04:56:58;;;;;;;8.20;5.40;;;;;;;0.85;87.41;97509.84;105908;1254;74306;-25
2024/01/19 04:59:25;;;;;;;6.60;4.70;;;;;;;0.64;88.48;97510.53;105696;1254;72479;-26
2024/01/19 05:01:52;;;;;;;6.70;4.20;;;;;;;0.61;88.44;97522.17;105617;1256;61232;-26
2024/01/19 05:04:19;;;;;;;7.40;4.90;;;;;;;0.85;87.33;97529.98;105753;1252;61122;-26
2024/01/19 05:06:46;;;;;;;8.00;5.40;;;;;;;0.79;86.94;97539.07;105889;1256;73846;-26
2024/01/19 05:09:13;;;;;;;7.90;5.40;;;;;;;0.84;86.71;97549.38;105617;1254;74118;-26
2024/01/19 05:11:39;;;;;;;7.70;5.50;;;;;;;0.50;86.94;97554.98;105819;1254;72610;-25
2024/01/19 05:14:06;;;;;;;9.50;7.00;;;;;;;0.40;87.06;97566.20;105604;1252;61174;-24
2024/01/19 05:16:33;;;;;;;8.80;6.70;;;;;;;0.43;86.42;97568.90;105802;1252;61131;-24
2024/01/19 05:19:00;;;;;;;10.10;7.10;;;;;;;0.45;85.58;97579.71;105775;1254;73786;-25
2024/01/19 05:21:27;;;;;;;10.30;7.50;;;;;;;0.17;85.94;97585.16;105591;1254;74658;-26
2024/01/19 05:23:54;;;;;;;15.80;9.10;;;;;;;0.10;86.29;97592.30;105668;1253;73182;-26
2024/01/19 05:26:21;;;;;;;10.90;7.10;;;;;;;0.18;85.63;97602.56;105867;1254;61106;-27
2024/01/19 05:28:48;;;;;;;11.40;7.20;;;;;;;0.24;85.41;97608.64;105910;1257;61172;-26
2024/01/19 05:31:14;;;;;;;15.40;9.50;;;;;;;0.53;84.38;97601.88;105844;1254;73724;-26
2024/01/19 05:33:41;;;;;;;12.20;7.10;;;;;;;0.32;83.68;97601.02;105799;1254;74436;-26
2024/01/19 05:36:09;;;;;;;11.40;8.50;;;;;;;0.07;83.44;97604.24;105901;1254;73251;-26
2024/01/19 05:38:36;;;;;;;9.80;6.40;;;;;;;-0.21;84.64;97618.71;105661;1256;61154;-27
2024/01/19 05:41:03;;;;;;;14.60;7.60;;;;;;;-0.23;84.96;97628.06;105625;1257;61103;-27
2024/01/19 05:43:30;;;;;;;10.70;7.20;;;;;;;0.07;83.77;97644.55;105657;1254;73946;-27
2024/01/19 05:45:57;;;;;;;19.70;8.70;;;;;;;0.02;83.27;97660.50;105663;1257;74216;-27
2024/01/19 05:48:25;;;;;;;12.50;6.70;;;;;;;-0.20;83.09;97668.30;105526;1254;72631;-27
2024/01/19 05:50:52;;;;;;;11.40;7.60;;;;;;;-0.21;82.95;97684.40;105893;1252;61166;-27
2024/01/19 05:53:19;;;;;;;11.50;7.00;;;;;;;-0.36;83.43;97692.11;105811;1256;61260;-28
2024/01/19 05:55:46;;;;;;;26.50;14.70;;;;;;;-0.13;83.29;97704.54;105785;1254;73716;-27
2024/01/19 05:58:13;;;;;;;13.50;8.20;;;;;;;-0.03;82.59;97713.20;105668;1254;74860;-27
2024/01/19 06:02:34;;;;;;;13.80;8.00;;;;;;;-0.18;83.12;97721.59;103280;1282;600881;-27
2024/01/19 06:05:03;;;;;;;12.20;8.10;;;;;;;-0.21;82.83;97719.73;105172;1263;61076;-27
2024/01/19 06:07:32;;;;;;;12.30;7.10;;;;;;;-0.31;83.62;97722.85;105234;1267;61129;-27
2024/01/19 06:09:59;;;;;;;10.60;6.30;;;;;;;-0.02;81.53;97729.00;105187;1263;72547;-27
2024/01/19 06:12:27;;;;;;;10.10;6.90;;;;;;;-0.09;81.52;97732.48;105179;1266;73171;-27
2024/01/19 06:14:55;;;;;;;10.50;6.10;;;;;;;-0.05;79.59;97737.19;105231;1267;72385;-27
2024/01/19 06:17:23;;;;;;;10.60;6.20;;;;;;;-0.14;79.37;97744.55;104978;1260;423027;-27
2024/01/19 06:19:50;;;;;;;11.40;7.30;;;;;;;-0.36;79.42;97749.36;105291;1260;61100;-27
2024/01/19 06:22:18;;;;;;;14.40;9.20;;;;;;;-0.36;79.62;97753.29;105269;1263;70920;-27
2024/01/19 06:24:50;;;;;;;17.60;12.80;;;;;;;-0.21;79.05;97758.25;105247;1261;73286;-27
2024/01/19 06:27:21;;;;;;;9.60;4.70;;;;;;;-0.03;78.07;97759.61;105176;1265;72740;-27
2024/01/19 06:29:50;;;;;;;14.60;7.00;;;;;;;0.13;77.71;97760.02;105026;1262;61109;-27
2024/01/19 06:39:55;;;;;;;8.00;4.90;;;;;;;0.10;79.23;97762.78;102664;1294;600547;-27
2024/01/19 06:50:08;;;;;;;10.40;5.80;;;;;;;-0.15;80.38;97789.80;102782;1293;599419;-27
2024/01/19 07:00:12;;;;;;;8.00;4.80;;;;;;;-0.15;78.06;97803.96;102747;1293;600123;-26
2024/01/19 07:02:40;;;;;;;5.40;3.60;;;;;;;-0.25;77.96;97804.38;104872;1271;61139;-27
2024/01/19 07:05:08;;;;;;;9.30;4.60;;;;;;;-0.47;78.21;97804.58;104826;1270;61185;-28
2024/01/19 07:07:35;;;;;;;8.40;4.60;;;;;;;-0.41;78.65;97803.59;105053;1265;70847;-28
2024/01/19 07:10:04;;;;;;;5.60;3.80;;;;;;;-0.40;77.93;97807.45;104807;1267;74151;-28
2024/01/19 07:12:32;;;;;;;9.00;4.70;;;;;;;-0.63;77.60;97810.58;104798;1274;72568;-28
2024/01/19 07:14:59;;;;;;;6.60;4.00;;;;;;;-0.32;76.63;97818.73;104911;1269;397639;-28
2024/01/19 07:17:28;;;;;;;7.80;3.70;;;;;;;-0.21;76.07;97821.20;105214;1266;61580;-28
2024/01/19 07:19:57;;;;;;;16.70;8.80;;;;;;;-0.50;77.34;97830.16;105245;1266;74421;-28
2024/01/19 07:22:25;;;;;;;7.90;4.50;;;;;;;-0.61;77.32;97843.86;105202;1264;74229;-28
2024/01/19 07:24:53;;;;;;;11.30;5.50;;;;;;;-0.51;77.22;97852.73;105030;1269;71040;-28
2024/01/19 07:27:20;;;;;;;6.20;3.50;;;;;;;-0.70;76.68;97861.24;105123;1264;61176;-28
2024/01/19 07:29:48;;;;;;;9.40;5.40;;;;;;;-0.76;76.65;97864.27;105136;1263;61083;-28
2024/01/19 07:32:19;;;;;;;6.50;3.80;;;;;;;-0.36;76.10;97869.77;108785;1263;71808;-26
2024/01/19 07:34:46;;;;;;;9.70;4.90;;;;;;;-0.22;75.33;97874.80;108738;1263;75410;-26
2024/01/19 07:37:14;;;;;;;7.00;3.40;;;;;;;-0.53;75.73;97881.61;108772;1263;71809;-26
2024/01/19 07:39:42;;;;;;;17.80;9.50;;;;;;;-0.47;75.85;97892.73;108775;1263;58917;-26
2024/01/19 07:42:09;;;;;;;9.40;4.30;;;;;;;-0.41;76.11;97899.55;108771;1263;59487;-26
2024/01/19 07:44:37;;;;;;;11.60;5.70;;;;;;;-0.53;76.40;97904.14;108794;1263;73817;-26
2024/01/19 07:47:04;;;;;;;11.60;6.00;;;;;;;-0.39;75.27;97909.52;108786;1263;75069;-26
2024/01/19 07:49:32;;;;;;;7.60;4.00;;;;;;;-0.12;74.72;97926.46;108761;1263;74796;-26
2024/01/19 07:51:59;;;;;;;11.70;5.70;;;;;;;0.08;73.86;97930.34;108775;1263;60185;-26
2024/01/19 07:54:27;;;;;;;12.20;6.60;;;;;;;-0.40;75.14;97930.02;108786;1263;61474;-27
2024/01/19 07:56:55;;;;;;;9.40;5.70;;;;;;;-0.37;75.89;97936.52;108782;1263;75132;-26
2024/01/19 07:59:25;;;;;;;11.40;5.50;;;;;;;-0.64;75.98;97937.30;108797;1263;75446;-26
2024/01/19 08:01:53;;;;;;;10.30;6.00;;;;;;;-0.62;76.25;97943.16;108764;1263;74797;-26
2024/01/19 08:04:20;;;;;;;10.00;5.00;;;;;;;-0.65;76.48;97943.29;108751;1264;61663;-26
2024/01/19 08:06:48;;;;;;;8.60;4.90;;;;;;;-0.43;76.32;97946.59;108779;1263;60301;-26
2024/01/19 08:09:15;;;;;;;8.70;4.20;;;;;;;-0.11;74.75;97940.20;108768;1264;73240;-26
2024/01/19 08:11:43;;;;;;;9.80;4.80;;;;;;;-0.22;74.84;97934.65;108837;1263;74664;-26
2024/01/19 08:14:11;;;;;;;8.60;3.80;;;;;;;-0.39;75.09;97938.36;108670;1263;71760;-26
2024/01/19 08:16:42;;;;;;;8.10;4.00;;;;;;;-0.34;75.60;97947.83;108691;1263;58793;-26
2024/01/19 08:19:10;;;;;;;7.30;4.10;;;;;;;-0.31;75.55;97951.02;108682;1263;58786;-26
2024/01/19 08:21:43;;;;;;;9.70;5.20;;;;;;;-0.43;75.58;97952.05;108703;1263;73424;-27
2024/01/19 08:24:12;;;;;;;10.00;4.30;;;;;;;-0.49;76.89;97959.02;108720;1263;75281;-26
2024/01/19 08:26:39;;;;;;;8.90;3.70;;;;;;;-0.01;75.33;97971.08;108733;1263;74568;-26
2024/01/19 08:29:07;;;;;;;11.80;5.80;;;;;;;0.50;73.20;97975.73;108739;1263;59556;-26
2024/01/19 08:31:34;;;;;;;13.30;6.50;;;;;;;0.21;73.45;97978.55;108740;1263;61509;-26
2024/01/19 08:34:02;;;;;;;7.70;4.60;;;;;;;0.08;74.54;97984.24;108776;1263;73321;-27
2024/01/19 08:36:29;;;;;;;9.70;4.70;;;;;;;-0.08;74.73;97981.15;108756;1263;74050;-27
2024/01/19 08:38:57;;;;;;;7.60;4.90;;;;;;;-0.29;76.08;97978.90;108690;1263;72989;-26
2024/01/19 08:41:25;;;;;;;7.10;4.40;;;;;;;-0.33;77.32;97984.08;108740;1263;58896;-26
2024/01/19 08:43:52;;;;;;;7.30;4.10;;;;;;;-0.34;77.37;97990.79;108745;1263;58834;-26
2024/01/19 08:46:20;;;;;;;6.40;3.80;;;;;;;0.24;75.91;97999.08;108747;1263;72310;-26
2024/01/19 08:48:47;;;;;;;5.70;3.40;;;;;;;0.32;74.32;98000.51;108706;1263;76210;-26
2024/01/19 08:51:20;;;;;;;9.50;4.50;;;;;;;0.37;74.13;97995.63;108870;1260;72537;-26
2024/01/19 08:53:48;;;;;;;8.50;4.40;;;;;;;0.01;74.55;97996.55;108814;1260;58773;-26
2024/01/19 08:56:20;;;;;;;10.70;4.10;;;;;;;-0.03;75.09;97997.95;108872;1260;59103;-26
2024/01/19 08:58:48;;;;;;;14.20;6.10;;;;;;;-0.23;75.82;97999.55;108814;1260;75061;-26
2024/01/19 09:01:19;;;;;;;18.00;7.60;;;;;;;-0.21;76.42;98003.57;108951;1260;75919;-27
2024/01/19 09:03:46;;;;;;;7.80;4.50;;;;;;;-0.33;76.73;98010.83;108936;1260;72408;-27
2024/01/19 09:06:14;;;;;;;13.00;6.10;;;;;;;-0.03;75.81;98015.03;108860;1260;59548;-26
2024/01/19 09:08:42;;;;;;;15.40;7.10;;;;;;;0.12;74.48;98015.60;108968;1260;60012;-27
2024/01/19 09:11:10;;;;;;;9.80;4.40;;;;;;;-0.02;75.17;98026.73;108886;1260;73804;-27
2024/01/19 09:13:38;;;;;;;7.20;4.20;;;;;;;-0.02;74.48;98026.78;108936;1260;75415;-27
2024/01/19 09:16:07;;;;;;;6.40;3.70;;;;;;;-0.28;75.54;98031.24;108933;1260;70948;-27
2024/01/19 09:18:35;;;;;;;10.80;6.20;;;;;;;-0.30;76.16;98035.23;108780;1260;58759;-27
2024/01/19 09:21:03;;;;;;;7.30;4.60;;;;;;;-0.27;76.46;98039.90;108792;1260;61540;-27
2024/01/19 09:23:31;;;;;;;11.40;5.50;;;;;;;-0.28;75.91;98048.41;108934;1260;72027;-26
2024/01/19 09:25:58;;;;;;;9.00;4.90;;;;;;;-0.21;75.61;98057.46;108925;1261;76399;-27
2024/01/19 09:28:26;;;;;;;9.70;4.80;;;;;;;0.16;75.21;98058.20;108874;1263;72503;-27
2024/01/19 09:30:53;;;;;;;8.10;4.60;;;;;;;0.29;73.80;98064.02;108879;1263;58805;-27
2024/01/19 09:33:21;;;;;;;12.10;5.60;;;;;;;0.27;74.53;98072.31;108873;1263;60745;-27
2024/01/19 09:35:48;;;;;;;8.40;4.70;;;;;;;0.30;73.51;98073.85;108918;1261;70908;-26
2024/01/19 09:38:16;;;;;;;10.10;5.30;;;;;;;0.25;73.82;98068.30;108847;1261;75890;-27
2024/01/19 09:40:45;;;;;;;8.80;4.70;;;;;;;-0.08;75.04;98069.91;108885;1263;72664;-27
2024/01/19 09:43:13;;;;;;;7.70;4.30;;;;;;;-0.13;75.42;98081.77;108895;1263;59471;-26
2024/01/19 09:45:41;;;;;;;13.00;6.00;;;;;;;0.03;75.33;98072.73;108922;1262;58871;-27
2024/01/19 09:48:18;;;;;;;15.10;7.10;;;;;;;0.25;73.57;98061.14;108873;1262;72119;-27
2024/01/19 09:50:47;;;;;;;12.40;6.60;;;;;;;0.16;73.88;98060.77;108800;1263;74539;-27
2024/01/19 09:53:20;;;;;;;13.20;6.30;;;;;;;0.11;74.37;98065.50;108813;1263;72478;-27
2024/01/19 09:55:48;;;;;;;8.70;4.80;;;;;;;0.35;74.09;98079.90;108786;1262;60078;-27
2024/01/19 09:58:16;;;;;;;15.90;7.10;;;;;;;0.25;74.10;98081.81;108880;1263;61867;-27
2024/01/19 10:00:47;;;;;;;9.20;4.70;;;;;;;0.22;74.11;98087.79;108883;1263;70990;-26
2024/01/19 10:03:16;;;;;;;7.90;4.90;;;;;;;0.10;74.67;98089.60;108896;1263;74661;-26
2024/01/19 10:05:44;;;;;;;8.70;4.60;;;;;;;0.08;74.89;98085.63;108820;1261;73518;-27
2024/01/19 10:08:12;;;;;;;9.70;4.30;;;;;;;0.68;73.05;98091.08;108856;1263;58873;-27
2024/01/19 10:10:40;;;;;;;12.40;5.40;;;;;;;0.91;71.76;98100.23;108793;1263;58699;-27
2024/01/19 10:13:09;;;;;;;5.70;3.70;;;;;;;1.06;71.13;98103.81;108789;1264;73995;-27
2024/01/19 10:15:36;;;;;;;4.10;2.70;;;;;;;1.00;70.36;98107.91;108883;1262;76306;-27
2024/01/19 10:18:05;;;;;;;11.20;4.80;;;;;;;0.43;72.43;98114.63;108864;1263;70559;-27
2024/01/19 10:20:33;;;;;;;7.80;4.70;;;;;;;0.27;73.25;98109.16;108790;1264;59900;-27
2024/01/19 10:23:23;;;;;;;6.00;3.60;;;;;;;0.37;73.28;98105.39;108847;1267;61938;-27
2024/01/19 10:25:50;;;;;;;9.40;4.70;;;;;;;0.66;72.49;98117.79;108825;1263;74409;-28
2024/01/19 10:28:29;;;;;;;5.10;3.30;;;;;;;0.75;71.92;98125.02;108870;1263;76517;-27
2024/01/19 10:31:16;;;;;;;5.70;3.60;;;;;;;0.55;72.78;98131.56;108713;1264;71871;-27
2024/01/19 10:33:48;;;;;;;8.90;5.00;;;;;;;0.91;71.22;98136.77;108773;1263;58831;-28
2024/01/19 10:36:16;;;;;;;7.10;3.50;;;;;;;0.85;72.08;98142.73;108699;1263;58728;-28
2024/01/19 10:38:43;;;;;;;6.70;4.00;;;;;;;1.43;70.39;98144.05;108800;1261;73396;-27
2024/01/19 10:41:15;;;;;;;9.00;3.50;;;;;;;1.21;69.78;98140.54;108830;1262;73688;-28
2024/01/19 10:43:43;;;;;;;6.50;3.20;;;;;;;1.20;70.08;98145.42;108694;1264;74541;-27
2024/01/19 10:46:21;;;;;;;6.40;4.10;;;;;;;0.98;70.05;98142.71;108770;1262;58808;-28
2024/01/19 10:48:50;;;;;;;11.20;5.40;;;;;;;0.80;71.23;98151.03;108725;1262;59519;-27
2024/01/19 10:51:21;;;;;;;9.10;5.10;;;;;;;0.54;72.47;98142.91;108897;1263;72123;-28
2024/01/19 10:53:52;;;;;;;7.00;3.70;;;;;;;0.65;71.63;98143.33;108879;1262;72888;-28
2024/01/19 10:56:20;;;;;;;7.70;3.70;;;;;;;0.54;72.08;98143.77;108851;1261;71279;-27
2024/01/19 10:58:49;;;;;;;9.60;4.70;;;;;;;0.77;72.49;98143.66;108741;1263;63081;-27
2024/01/19 11:01:17;;;;;;;9.90;4.10;;;;;;;0.99;71.25;98140.42;108722;1269;60308;-27
2024/01/19 11:03:45;;;;;;;6.00;3.50;;;;;;;1.11;70.66;98141.45;108848;1264;72654;-28
2024/01/19 11:06:13;;;;;;;9.00;4.60;;;;;;;1.26;70.27;98141.50;108766;1268;76535;-28
2024/01/19 11:08:41;;;;;;;8.00;4.00;;;;;;;1.39;69.78;98142.09;108847;1262;74841;-28
2024/01/19 11:11:09;;;;;;;5.70;3.00;;;;;;;1.15;69.55;98144.48;108855;1263;58783;-28
2024/01/19 11:13:40;;;;;;;5.40;2.80;;;;;;;0.90;71.12;98147.23;108830;1262;62043;-28
2024/01/19 11:16:12;;;;;;;7.90;4.20;;;;;;;0.92;71.26;98146.76;108787;1263;74841;-28
2024/01/19 11:18:39;;;;;;;10.10;3.70;;;;;;;0.95;70.61;98130.91;108722;1263;76621;-28
2024/01/19 11:21:07;;;;;;;7.80;4.60;;;;;;;0.55;71.70;98120.15;108769;1267;73585;-28
2024/01/19 11:23:35;;;;;;;18.90;6.50;;;;;;;0.23;73.18;98111.63;108767;1263;61120;-28
2024/01/19 11:26:09;;;;;;;23.10;8.30;;;;;;;0.43;72.19;98113.77;108862;1263;58750;-28
2024/01/19 11:28:42;;;;;;;9.90;4.50;;;;;;;0.86;70.89;98117.21;108742;1263;73083;-28
2024/01/19 11:31:17;;;;;;;;;;;;;;;1.29;68.97;98118.36;108725;1262;72360;-28
2024/01/19 11:33:45;;;;;;;10.50;4.60;;;;;;;0.93;70.15;98126.07;108827;1262;72469;-28
2024/01/19 11:36:38;;;;;;;12.50;5.30;;;;;;;0.85;70.23;98131.48;108782;1264;59082;-28
2024/01/19 11:39:06;;;;;;;28.90;8.30;;;;;;;0.55;70.89;98140.10;108731;1264;59815;-28
2024/01/19 11:41:33;;;;;;;13.30;6.10;;;;;;;0.59;71.17;98140.76;108819;1263;73116;-28
2024/01/19 11:44:06;;;;;;;8.50;4.30;;;;;;;0.74;71.32;98139.93;108807;1263;72767;-28
2024/01/19 11:46:44;;;;;;;8.30;5.00;;;;;;;0.93;70.09;98144.85;108646;1263;72439;-28
2024/01/19 11:49:29;;;;;;;7.80;4.60;;;;;;;0.49;71.60;98151.35;108668;1264;59886;-28
2024/01/19 11:52:02;;;;;;;7.70;4.10;;;;;;;0.67;72.33;98157.92;108828;1262;60064;-27
2024/01/19 11:54:33;;;;;;;9.90;5.50;;;;;;;1.46;69.00;98155.73;108676;1263;74834;-27
2024/01/19 11:57:16;;;;;;;10.10;5.50;;;;;;;1.30;69.19;98157.17;108769;1262;74761;-28
2024/01/19 11:59:44;;;;;;;7.40;4.40;;;;;;;1.36;68.22;98158.30;108734;1263;72458;-28